KFLL

Fort Lauderdale Hollywood International Airport

Airport
ICAO code
KFLL
Summary
ICAO Region
NAM
ICAO Territory
Location

Fort Lauderdale, Florida,

Elevation
9 ft
Coordinates
26° 4' 21" N , 80° 9' 10" W
KCC
Am
Airport RE
Engineered Materials Arresting System
Airport WX
Tropical Revolving Storm
Metar
Observation
KFLL 170953Z 23004KT 10SM CLR 26/24 A2993 RMK AO2 SLP134 T02610244 $
Station
Fort Lauderdale, Fort Lauderdale / Hollywood International Airport
Date/Time
2022-08-17 09:53:00
Wind direction
230°
Wind speed
04 kts
Lowest cloud amount
n/a
Temperature
26.1°C
Dew point
24.4°C
Humidity
90%
Weather condition
n/a

Description

International airport serving Fort Lauderdale.

Climatology

Tropical Monsoon climate (Köppen climate classification Am) - monthly mean temperatures above 18°C in every month of the year and features wet and dry seasons. A tropical monsoon climate typically features less pronounced dry seasons than a tropical savanna climate and see less variance in temperatures during the course of the year. The driest month nearly always occurs at or soon after the "winter" solstice. Hurricane season runs from July to November but south east Florida is most likely to be hit by Hurricanes in mid August to late September.

Airport map

Aerial View

SKYbrary Partners:

Safety knowledge contributed by: